createdAt,value
2023-04-09T00:01:08.845Z,18.43
2023-04-09T00:03:40.464Z,19.93
2023-04-09T00:06:08.947Z,19.57
2023-04-09T00:08:37.087Z,19.70
2023-04-09T00:11:05.752Z,20.40
2023-04-09T00:13:39.024Z,18.90
2023-04-09T00:16:08.713Z,20.57
2023-04-09T00:18:38.570Z,19.03
2023-04-09T00:21:08.520Z,17.60
2023-04-09T00:23:36.753Z,17.10
2023-04-09T00:26:05.025Z,17.27
2023-04-09T00:28:33.238Z,19.10
2023-04-09T00:31:01.454Z,17.60
2023-04-09T00:33:29.681Z,15.90
2023-04-09T00:35:59.233Z,16.00
2023-04-09T00:38:27.500Z,15.67
2023-04-09T00:40:55.729Z,19.40
2023-04-09T00:43:23.938Z,17.37
2023-04-09T00:45:52.223Z,15.97
2023-04-09T00:48:20.472Z,16.67
2023-04-09T00:50:48.688Z,14.53
2023-04-09T00:53:19.142Z,15.40
2023-04-09T00:55:47.503Z,16.43
2023-04-09T00:58:15.774Z,14.20
2023-04-09T01:00:43.947Z,14.97
2023-04-09T01:03:12.363Z,15.83
2023-04-09T01:05:45.752Z,15.93
2023-04-09T01:08:21.037Z,15.47
2023-04-09T01:10:58.399Z,20.03
2023-04-09T01:13:31.951Z,20.33
2023-04-09T01:16:03.227Z,22.77
2023-04-09T01:18:36.967Z,20.47
2023-04-09T01:21:10.918Z,21.77
2023-04-09T01:23:48.742Z,22.80
2023-04-09T01:26:30.876Z,22.87
2023-04-09T01:29:03.378Z,23.70
2023-04-09T01:31:35.284Z,21.60
2023-04-09T01:34:04.808Z,21.27
2023-04-09T01:36:34.419Z,22.13
2023-04-09T01:39:03.520Z,21.03
2023-04-09T01:41:34.216Z,20.90
2023-04-09T01:44:05.774Z,23.13
2023-04-09T01:46:34.839Z,23.33
2023-04-09T01:49:03.942Z,24.60
2023-04-09T01:51:33.244Z,22.37
2023-04-09T01:54:01.735Z,22.67
2023-04-09T01:56:29.956Z,23.77
2023-04-09T01:58:58.056Z,29.13
2023-04-09T02:01:34.527Z,26.73
2023-04-09T02:04:06.682Z,25.97
2023-04-09T02:06:41.407Z,23.73
2023-04-09T02:09:10.721Z,25.17
2023-04-09T02:11:41.554Z,26.50
2023-04-09T02:14:11.284Z,23.87
2023-04-09T02:16:43.335Z,24.17
2023-04-09T02:19:11.683Z,29.00
2023-04-09T02:21:39.852Z,23.20
2023-04-09T02:24:08.175Z,24.17
2023-04-09T02:26:36.360Z,23.77
2023-04-09T02:29:04.617Z,24.67
2023-04-09T02:31:32.830Z,23.87
2023-04-09T02:34:02.455Z,22.20
2023-04-09T02:36:31.136Z,20.77
2023-04-09T02:38:59.307Z,24.43
2023-04-09T02:41:27.444Z,27.23
2023-04-09T02:43:55.608Z,23.80
2023-04-09T02:46:23.837Z,26.53
2023-04-09T02:48:52.154Z,26.50
2023-04-09T02:51:21.853Z,30.17
2023-04-09T02:53:49.993Z,29.07
2023-04-09T02:56:18.145Z,32.50
2023-04-09T02:58:46.382Z,29.27
2023-04-09T03:01:14.595Z,31.80
2023-04-09T03:03:43.173Z,29.77
2023-04-09T03:06:11.427Z,28.57
2023-04-09T03:08:40.972Z,33.50
2023-04-09T03:11:09.184Z,27.73
2023-04-09T03:13:37.370Z,31.47
2023-04-09T03:16:06.002Z,28.30
2023-04-09T03:18:34.171Z,30.27
2023-04-09T03:21:06.623Z,31.40
2023-04-09T03:23:35.183Z,30.60
2023-04-09T03:26:05.951Z,27.07
2023-04-09T03:28:34.395Z,27.87
2023-04-09T03:31:02.552Z,28.43
2023-04-09T03:33:30.684Z,28.87
2023-04-09T03:35:58.844Z,28.87
2023-04-09T03:38:27.063Z,31.93
2023-04-09T03:40:55.196Z,28.83
2023-04-09T03:43:24.742Z,28.53
2023-04-09T03:45:52.886Z,25.63
2023-04-09T03:48:21.056Z,21.20
2023-04-09T03:50:49.157Z,24.67
2023-04-09T03:53:17.292Z,23.13
2023-04-09T03:55:45.420Z,26.17
2023-04-09T03:58:13.569Z,23.93
2023-04-09T04:00:43.434Z,20.83
2023-04-09T04:03:14.725Z,21.67
2023-04-09T04:05:43.174Z,22.40
2023-04-09T04:08:11.297Z,21.33
2023-04-09T04:10:39.496Z,24.50
2023-04-09T04:13:08.378Z,24.33
2023-04-09T04:15:42.511Z,21.50
2023-04-09T04:18:10.958Z,22.60
2023-04-09T04:20:39.742Z,23.03
2023-04-09T04:23:07.904Z,23.83
2023-04-09T04:25:36.028Z,24.00
2023-04-09T04:28:04.144Z,22.77
2023-04-09T04:30:32.319Z,25.37
2023-04-09T04:33:01.931Z,23.37
2023-04-09T04:35:30.211Z,26.20
2023-04-09T04:37:58.335Z,25.43
2023-04-09T04:40:26.483Z,22.20
2023-04-09T04:42:54.595Z,22.93
2023-04-09T04:45:22.701Z,24.70
2023-04-09T04:47:50.839Z,24.57
2023-04-09T04:50:20.478Z,29.23
2023-04-09T04:52:48.657Z,30.37
2023-04-09T04:55:16.891Z,77.30
2023-04-09T04:57:45.004Z,77.50
2023-04-09T05:00:14.576Z,59.13
2023-04-09T05:02:42.856Z,56.30
2023-04-09T05:05:11.231Z,32.13
2023-04-09T05:07:40.721Z,32.83
2023-04-09T05:10:10.382Z,30.43
2023-04-09T05:12:38.542Z,25.63
2023-04-09T05:15:08.028Z,26.60
2023-04-09T05:17:36.191Z,39.77
2023-04-09T05:20:04.873Z,37.27
2023-04-09T05:22:32.985Z,33.07
2023-04-09T05:25:02.578Z,31.63
2023-04-09T05:27:31.264Z,48.10
2023-04-09T05:30:00.758Z,51.90
2023-04-09T05:32:29.384Z,45.63
2023-04-09T05:34:57.576Z,43.20
2023-04-09T05:37:25.796Z,36.63
2023-04-09T05:39:53.968Z,33.30
2023-04-09T05:42:23.502Z,29.67
2023-04-09T05:44:51.637Z,28.53
2023-04-09T05:47:19.779Z,27.90
2023-04-09T05:49:48.276Z,29.23
2023-04-09T05:52:17.199Z,27.27
2023-04-09T05:54:45.394Z,30.20
2023-04-09T05:57:13.559Z,31.87
2023-04-09T05:59:43.147Z,26.67
2023-04-09T06:02:11.402Z,28.10
2023-04-09T06:04:39.614Z,27.33
2023-04-09T06:07:07.830Z,26.00
2023-04-09T06:09:35.993Z,32.53
2023-04-09T06:12:04.150Z,44.17
2023-04-09T06:14:33.166Z,39.93
2023-04-09T06:17:03.538Z,38.97
2023-04-09T06:19:31.675Z,26.03
2023-04-09T06:21:59.845Z,25.20
2023-04-09T06:24:27.998Z,28.57
2023-04-09T06:26:56.131Z,27.00
2023-04-09T06:29:24.461Z,27.70
2023-04-09T06:31:52.677Z,36.00
2023-04-09T06:34:22.289Z,34.37
2023-04-09T06:36:50.422Z,28.73
2023-04-09T06:39:18.571Z,33.67
2023-04-09T06:41:46.714Z,33.20
2023-04-09T06:44:14.995Z,35.50
2023-04-09T06:46:43.257Z,33.17
2023-04-09T06:49:11.422Z,29.73
2023-04-09T06:51:41.012Z,28.47
2023-04-09T06:54:09.172Z,27.70
2023-04-09T06:56:37.305Z,28.05
2023-04-09T06:59:05.432Z,28.48
2023-04-09T07:01:35.607Z,25.83
2023-04-09T07:04:03.901Z,27.50
2023-04-09T07:06:32.186Z,26.90
2023-04-09T07:09:01.749Z,28.48
2023-04-09T07:11:29.889Z,28.95
2023-04-09T07:13:58.003Z,29.23
2023-04-09T07:16:26.173Z,29.67
2023-04-09T07:18:54.389Z,26.08
2023-04-09T07:21:22.534Z,28.55
2023-04-09T07:23:51.111Z,32.35
2023-04-09T07:26:21.326Z,33.42
2023-04-09T07:28:49.578Z,29.95
2023-04-09T07:31:17.815Z,34.30
2023-04-09T07:33:46.131Z,28.77
2023-04-09T07:36:14.309Z,25.90
2023-04-09T07:38:42.629Z,28.42
2023-04-09T07:41:12.436Z,30.42
2023-04-09T07:43:42.509Z,27.57
2023-04-09T07:46:10.685Z,29.23
2023-04-09T07:48:38.880Z,26.63
2023-04-09T07:51:07.214Z,28.40
2023-04-09T07:53:35.421Z,29.35
2023-04-09T07:56:03.617Z,24.52
2023-04-09T07:58:31.764Z,28.35
2023-04-09T08:01:01.275Z,27.63
2023-04-09T08:03:29.638Z,26.83
2023-04-09T08:05:57.927Z,26.23
2023-04-09T08:08:26.133Z,26.23
2023-04-09T08:10:54.646Z,25.27
2023-04-09T08:13:25.079Z,26.73
2023-04-09T08:15:53.328Z,24.52
2023-04-09T08:18:22.888Z,22.33
2023-04-09T08:20:51.057Z,25.48
2023-04-09T08:23:19.232Z,24.85
2023-04-09T08:25:47.459Z,25.05
2023-04-09T08:28:15.662Z,26.98
2023-04-09T08:30:44.652Z,26.80
2023-04-09T08:33:13.400Z,23.27
2023-04-09T08:35:43.373Z,22.73
2023-04-09T08:38:11.651Z,26.23
2023-04-09T08:40:40.036Z,27.15
2023-04-09T08:43:09.446Z,24.33
2023-04-09T08:45:37.694Z,24.08
2023-04-09T08:48:09.778Z,23.48
2023-04-09T08:50:38.436Z,24.45
2023-04-09T08:53:10.890Z,26.30
2023-04-09T08:55:39.484Z,24.45
2023-04-09T08:58:09.513Z,24.35
2023-04-09T09:00:37.978Z,24.30
2023-04-09T09:03:08.621Z,21.48
2023-04-09T09:05:38.305Z,25.20
2023-04-09T09:08:08.860Z,26.00
2023-04-09T09:10:41.053Z,22.35
2023-04-09T09:13:23.506Z,20.70
2023-04-09T09:15:55.145Z,20.08
2023-04-09T09:18:38.215Z,22.65
2023-04-09T09:21:12.707Z,22.65
2023-04-09T09:23:42.603Z,24.95
2023-04-09T09:26:16.247Z,22.80
2023-04-09T09:28:44.634Z,18.50
2023-04-09T09:31:13.779Z,19.75
2023-04-09T09:33:42.578Z,19.90
2023-04-09T09:36:11.086Z,18.38
2023-04-09T09:38:55.656Z,19.35
2023-04-09T09:41:24.771Z,21.15
2023-04-09T09:43:53.153Z,17.42
2023-04-09T09:46:23.143Z,21.50
2023-04-09T09:48:51.638Z,18.75
2023-04-09T09:51:20.869Z,18.98
2023-04-09T09:53:51.123Z,22.95
2023-04-09T09:56:26.480Z,20.25
2023-04-09T09:59:01.688Z,27.92
2023-04-09T10:01:30.022Z,21.42
2023-04-09T10:04:01.442Z,21.05
2023-04-09T10:06:30.869Z,22.17
2023-04-09T10:09:00.802Z,20.48
2023-04-09T10:11:31.770Z,19.85
2023-04-09T10:14:07.346Z,23.67
2023-04-09T10:16:39.031Z,22.55
2023-04-09T10:19:17.283Z,22.05
2023-04-09T10:21:54.728Z,22.60
2023-04-09T10:24:28.527Z,20.55
2023-04-09T10:27:15.738Z,22.27
2023-04-09T10:29:46.303Z,20.02
2023-04-09T10:32:22.464Z,23.00
2023-04-09T10:34:54.718Z,20.73
2023-04-09T10:37:27.182Z,19.75
2023-04-09T10:39:56.501Z,21.42
2023-04-09T10:42:31.766Z,17.88
2023-04-09T10:45:08.127Z,19.23
2023-04-09T10:47:40.949Z,20.95
2023-04-09T10:50:26.642Z,17.42
2023-04-09T10:53:03.996Z,22.60
2023-04-09T10:55:36.534Z,20.90
2023-04-09T10:58:10.475Z,21.90
2023-04-09T11:00:42.489Z,23.13
2023-04-09T11:03:37.204Z,19.40
2023-04-09T11:06:10.160Z,21.17
2023-04-09T11:08:39.615Z,18.90
2023-04-09T11:11:07.763Z,16.60
2023-04-09T11:13:37.400Z,19.48
2023-04-09T11:16:07.293Z,19.48
2023-04-09T11:18:39.003Z,20.00
2023-04-09T11:21:13.558Z,17.33
2023-04-09T11:23:43.933Z,16.38
2023-04-09T11:26:14.800Z,18.13
2023-04-09T11:28:44.499Z,18.95
2023-04-09T11:31:12.825Z,19.52
2023-04-09T11:33:42.400Z,21.50
2023-04-09T11:36:20.740Z,19.33
2023-04-09T11:38:54.988Z,17.75
2023-04-09T11:41:37.813Z,17.95
2023-04-09T11:44:12.181Z,17.77
2023-04-09T11:46:44.360Z,19.70
2023-04-09T11:49:15.559Z,20.00
2023-04-09T11:51:45.898Z,20.40
2023-04-09T11:54:16.050Z,21.15
2023-04-09T11:56:47.161Z,19.70
2023-04-09T11:59:21.615Z,17.70
2023-04-09T12:01:56.956Z,17.35
2023-04-09T12:04:25.267Z,16.58
2023-04-09T12:06:58.748Z,17.65
2023-04-09T12:09:27.094Z,15.10
2023-04-09T12:11:56.127Z,15.55
2023-04-09T12:14:27.131Z,18.65
2023-04-09T12:16:55.338Z,15.43
2023-04-09T12:19:30.430Z,16.45
2023-04-09T12:21:59.109Z,13.05
2023-04-09T12:24:28.649Z,12.65
2023-04-09T12:26:57.373Z,12.93
2023-04-09T12:29:30.615Z,14.00
2023-04-09T12:32:04.005Z,14.45
2023-04-09T12:34:32.212Z,12.55
2023-04-09T12:37:00.530Z,16.13
2023-04-09T12:39:29.859Z,13.15
2023-04-09T12:41:58.032Z,12.05
2023-04-09T12:44:30.241Z,12.68
2023-04-09T12:47:05.631Z,12.15
2023-04-09T12:49:33.821Z,12.65
2023-04-09T12:52:07.839Z,12.55
2023-04-09T12:54:36.101Z,14.52
2023-04-09T12:57:04.598Z,16.55
2023-04-09T12:59:35.945Z,13.07
2023-04-09T13:02:04.617Z,11.18
2023-04-09T13:04:35.435Z,14.20
2023-04-09T13:07:06.557Z,10.30
2023-04-09T13:09:35.299Z,11.02
2023-04-09T13:12:04.854Z,12.73
2023-04-09T13:14:37.448Z,11.93
2023-04-09T13:17:05.744Z,13.10
2023-04-09T13:19:35.475Z,9.70
2023-04-09T13:22:03.746Z,12.55
2023-04-09T13:24:33.561Z,9.13
2023-04-09T13:27:02.045Z,8.52
2023-04-09T13:29:30.217Z,10.25
2023-04-09T13:32:02.571Z,9.35
2023-04-09T13:34:30.752Z,14.38
2023-04-09T13:36:58.901Z,7.38
2023-04-09T13:39:27.033Z,9.00
2023-04-09T13:41:58.395Z,8.27
2023-04-09T13:44:29.179Z,10.32
2023-04-09T13:46:57.290Z,10.80
2023-04-09T13:49:27.748Z,9.30
2023-04-09T13:51:58.132Z,9.10
2023-04-09T13:54:26.395Z,9.82
2023-04-09T13:56:54.557Z,9.07
2023-04-09T13:59:23.948Z,8.25
2023-04-09T14:01:52.331Z,7.78
2023-04-09T14:04:20.661Z,9.18
2023-04-09T14:06:52.335Z,9.50
2023-04-09T14:09:20.479Z,9.90
2023-04-09T14:11:49.413Z,7.70
2023-04-09T14:14:17.850Z,9.90
2023-04-09T14:16:45.994Z,10.88
2023-04-09T14:19:14.146Z,11.65
2023-04-09T14:21:43.666Z,9.77
2023-04-09T14:24:23.268Z,9.45
2023-04-09T14:26:53.451Z,7.97
2023-04-09T14:29:22.664Z,9.43
2023-04-09T14:31:51.795Z,8.27
2023-04-09T14:34:19.944Z,9.50
2023-04-09T14:36:50.879Z,11.43
2023-04-09T14:39:20.452Z,10.23
2023-04-09T14:41:48.599Z,8.27
2023-04-09T14:44:16.832Z,8.25
2023-04-09T14:46:45.066Z,8.95
2023-04-09T14:49:13.230Z,7.55
2023-04-09T14:51:41.384Z,7.93
2023-04-09T14:54:09.514Z,7.88
2023-04-09T14:56:39.072Z,9.02
2023-04-09T14:59:07.292Z,8.10
2023-04-09T15:01:35.456Z,10.32
2023-04-09T15:04:03.817Z,7.65
2023-04-09T15:06:32.970Z,12.40
2023-04-09T15:09:01.586Z,10.35
2023-04-09T15:11:29.734Z,9.75
2023-04-09T15:13:59.275Z,11.07
2023-04-09T15:16:28.972Z,15.93
2023-04-09T15:18:59.120Z,12.43
2023-04-09T15:21:27.826Z,13.50
2023-04-09T15:23:58.826Z,12.07
2023-04-09T15:26:27.388Z,12.20
2023-04-09T15:29:02.940Z,12.50
2023-04-09T15:31:31.523Z,12.30
2023-04-09T15:33:59.741Z,10.82
2023-04-09T15:36:29.993Z,10.02
2023-04-09T15:38:58.137Z,10.82
2023-04-09T15:41:26.925Z,14.25
2023-04-09T15:43:55.227Z,12.27
2023-04-09T15:46:25.063Z,12.13
2023-04-09T15:48:53.725Z,15.20
2023-04-09T15:51:22.387Z,23.73
2023-04-09T15:53:50.564Z,11.75
2023-04-09T15:56:19.849Z,12.90
2023-04-09T15:58:48.122Z,19.27
2023-04-09T16:01:17.260Z,16.52
2023-04-09T16:03:51.978Z,12.80
2023-04-09T16:06:21.063Z,15.07
2023-04-09T16:08:49.262Z,12.60
2023-04-09T16:11:17.683Z,15.68
2023-04-09T16:13:46.173Z,13.52
2023-04-09T16:16:14.382Z,14.95
2023-04-09T16:18:42.542Z,16.45
2023-04-09T16:21:12.486Z,13.70
2023-04-09T16:23:40.898Z,11.85
2023-04-09T16:26:09.325Z,12.10
2023-04-09T16:28:37.539Z,15.63
2023-04-09T16:31:05.946Z,12.32
2023-04-09T16:33:34.083Z,12.52
2023-04-09T16:36:02.316Z,12.48
2023-04-09T16:38:31.914Z,12.43
2023-04-09T16:41:00.088Z,15.52
2023-04-09T16:43:28.212Z,13.57
2023-04-09T16:45:57.138Z,12.05
2023-04-09T16:48:25.619Z,15.80
2023-04-09T16:50:53.786Z,14.02
2023-04-09T16:53:21.966Z,14.52
2023-04-09T16:55:51.656Z,15.20
2023-04-09T16:58:19.819Z,14.45
2023-04-09T17:00:49.336Z,17.98
2023-04-09T17:03:19.679Z,16.83
2023-04-09T17:05:49.380Z,15.63
2023-04-09T17:08:18.025Z,20.08
2023-04-09T17:10:46.340Z,17.40
2023-04-09T17:13:15.870Z,20.08
2023-04-09T17:15:44.003Z,16.60
2023-04-09T17:18:12.115Z,13.27
2023-04-09T17:20:40.485Z,15.95
2023-04-09T17:23:08.666Z,17.55
2023-04-09T17:25:36.989Z,16.60
2023-04-09T17:28:05.998Z,17.40
2023-04-09T17:30:36.189Z,18.90
2023-04-09T17:33:04.591Z,19.95
2023-04-09T17:35:32.936Z,19.00
2023-04-09T17:38:02.447Z,17.63
2023-04-09T17:40:30.750Z,20.48
2023-04-09T17:42:59.590Z,18.67
2023-04-09T17:45:27.866Z,18.45
2023-04-09T17:47:57.463Z,20.15
2023-04-09T17:50:25.782Z,20.40
2023-04-09T17:52:53.964Z,18.25
2023-04-09T17:55:23.367Z,16.20
2023-04-09T17:57:51.520Z,13.50
2023-04-09T18:00:19.917Z,13.30
2023-04-09T18:02:48.314Z,15.32
2023-04-09T18:05:18.074Z,14.88
2023-04-09T18:07:46.205Z,20.33
2023-04-09T18:10:14.327Z,15.30
2023-04-09T18:12:42.460Z,14.75
2023-04-09T18:15:11.526Z,17.08
2023-04-09T18:17:39.836Z,14.70
2023-04-09T18:20:08.872Z,16.02
2023-04-09T18:22:38.392Z,13.18
2023-04-09T18:25:07.555Z,15.30
2023-04-09T18:27:37.291Z,16.27
2023-04-09T18:30:06.280Z,17.33
2023-04-09T18:32:34.582Z,14.48
2023-04-09T18:35:02.835Z,20.15
2023-04-09T18:37:31.071Z,12.50
2023-04-09T18:40:02.428Z,18.38
2023-04-09T18:42:31.047Z,17.15
2023-04-09T18:44:59.168Z,13.82
2023-04-09T18:47:27.339Z,14.63
2023-04-09T18:49:55.524Z,14.15
2023-04-09T18:52:23.655Z,14.77
2023-04-09T18:54:51.826Z,14.40
2023-04-09T18:57:21.428Z,19.55
2023-04-09T18:59:49.619Z,20.33
2023-04-09T19:02:18.654Z,18.48
2023-04-09T19:04:47.294Z,18.08
2023-04-09T19:07:15.607Z,18.60
2023-04-09T19:09:44.583Z,18.35
2023-04-09T19:12:12.797Z,21.17
2023-04-09T19:14:42.320Z,22.08
2023-04-09T19:17:11.704Z,21.30
2023-04-09T19:19:39.838Z,18.83
2023-04-09T19:22:08.205Z,21.75
2023-04-09T19:24:36.353Z,23.83
2023-04-09T19:27:09.761Z,24.65
2023-04-09T19:29:38.067Z,21.02
2023-04-09T19:32:12.796Z,25.75
2023-04-09T19:34:41.193Z,23.05
2023-04-09T19:37:09.339Z,36.30
2023-04-09T19:39:37.520Z,24.02
2023-04-09T19:42:05.819Z,23.70
2023-04-09T19:44:33.974Z,20.55
2023-04-09T19:47:02.116Z,21.85
2023-04-09T19:49:31.721Z,22.77
2023-04-09T19:52:00.188Z,21.00
2023-04-09T19:54:28.373Z,20.83
2023-04-09T19:56:56.923Z,27.75
2023-04-09T19:59:25.104Z,32.67
2023-04-09T20:01:53.326Z,25.17
2023-04-09T20:04:24.587Z,28.42
2023-04-09T20:06:55.013Z,27.47
2023-04-09T20:09:26.424Z,23.30
2023-04-09T20:11:54.972Z,20.92
2023-04-09T20:14:23.291Z,23.93
2023-04-09T20:16:51.511Z,25.98
2023-04-09T20:19:19.775Z,22.75
2023-04-09T20:21:49.071Z,25.03
2023-04-09T20:24:18.623Z,22.97
2023-04-09T20:26:47.678Z,21.67
2023-04-09T20:29:15.842Z,23.73
2023-04-09T20:31:44.642Z,23.73
2023-04-09T20:34:12.873Z,21.90
2023-04-09T20:36:43.580Z,25.02
2023-04-09T20:39:12.405Z,24.23
2023-04-09T20:41:42.007Z,21.30
2023-04-09T20:44:10.230Z,22.90
2023-04-09T20:46:38.499Z,25.40
2023-04-09T20:49:06.678Z,25.77
2023-04-09T20:51:34.862Z,25.43
2023-04-09T20:54:04.087Z,26.77
2023-04-09T20:56:32.334Z,25.23
2023-04-09T20:59:02.340Z,26.80
2023-04-09T21:01:32.120Z,24.40
2023-04-09T21:04:00.488Z,27.30
2023-04-09T21:06:28.733Z,25.90
2023-04-09T21:08:58.660Z,30.40
2023-04-09T21:11:27.969Z,28.83
2023-04-09T21:13:56.183Z,27.52
2023-04-09T21:16:27.203Z,25.10
2023-04-09T21:18:55.679Z,27.83
2023-04-09T21:21:24.028Z,27.90
2023-04-09T21:23:52.171Z,28.37
2023-04-09T21:26:20.798Z,27.53
2023-04-09T21:28:50.569Z,22.30
2023-04-09T21:31:19.004Z,26.53
2023-04-09T21:33:48.691Z,25.33
2023-04-09T21:36:17.056Z,26.53
2023-04-09T21:38:45.243Z,24.27
2023-04-09T21:41:13.889Z,25.40
2023-04-09T21:43:42.436Z,24.77
2023-04-09T21:46:10.670Z,27.40
2023-04-09T21:48:40.631Z,28.60
2023-04-09T21:51:12.278Z,22.77
2023-04-09T21:53:40.479Z,23.80
2023-04-09T21:56:09.180Z,26.10
2023-04-09T21:58:37.382Z,28.13
2023-04-09T22:01:15.846Z,27.53
2023-04-09T22:03:50.755Z,26.37
2023-04-09T22:06:20.448Z,25.13
2023-04-09T22:08:55.459Z,28.63
2023-04-09T22:11:27.724Z,28.17
2023-04-09T22:13:57.238Z,29.40
2023-04-09T22:16:26.195Z,28.57
2023-04-09T22:18:55.148Z,29.17
2023-04-09T22:21:24.995Z,28.53
2023-04-09T22:23:53.152Z,26.93
2023-04-09T22:26:21.570Z,30.73
2023-04-09T22:28:50.290Z,31.00
2023-04-09T22:31:19.173Z,27.80
2023-04-09T22:33:47.355Z,33.23
2023-04-09T22:36:15.621Z,32.87
2023-04-09T22:38:45.182Z,29.37
2023-04-09T22:41:13.536Z,28.93
2023-04-09T22:43:41.661Z,29.90
2023-04-09T22:46:09.801Z,28.77
2023-04-09T22:48:44.107Z,27.83
2023-04-09T22:51:13.863Z,29.20
2023-04-09T22:53:42.032Z,31.53
2023-04-09T22:56:11.684Z,30.27
2023-04-09T22:58:40.097Z,29.63
2023-04-09T23:01:08.832Z,30.20
2023-04-09T23:03:37.045Z,31.30
2023-04-09T23:06:05.573Z,33.37
2023-04-09T23:08:33.736Z,33.43
2023-04-09T23:11:01.840Z,34.33
2023-04-09T23:13:31.380Z,30.60
2023-04-09T23:15:59.565Z,28.27
2023-04-09T23:18:27.754Z,30.73
2023-04-09T23:20:55.864Z,30.40
2023-04-09T23:23:24.046Z,35.80
2023-04-09T23:25:52.535Z,35.47
2023-04-09T23:28:20.697Z,33.17
2023-04-09T23:30:50.327Z,28.80
2023-04-09T23:33:18.447Z,30.67
2023-04-09T23:35:46.807Z,29.60
2023-04-09T23:38:15.497Z,32.27
2023-04-09T23:40:43.739Z,32.80
2023-04-09T23:43:12.112Z,32.57
2023-04-09T23:45:40.283Z,33.40
2023-04-09T23:48:10.046Z,33.43
2023-04-09T23:50:40.310Z,36.77
2023-04-09T23:53:08.940Z,31.70
2023-04-09T23:55:40.780Z,30.57
2023-04-09T23:58:09.745Z,31.13
